sensor_id;sensor_type;location;lat;lon;timestamp;P1;durP1;ratioP1;P2;durP2;ratioP2
65871;SDS011;52653;50.080;21.992;2023-02-13T00:00:18;47.40;;;26.80;;
65871;SDS011;52653;50.080;21.992;2023-02-13T00:03:22;44.60;;;26.20;;
65871;SDS011;52653;50.080;21.992;2023-02-13T00:06:13;43.40;;;25.50;;
65871;SDS011;52653;50.080;21.992;2023-02-13T00:09:06;42.70;;;26.30;;
65871;SDS011;52653;50.080;21.992;2023-02-13T00:11:59;42.60;;;26.10;;
65871;SDS011;52653;50.080;21.992;2023-02-13T00:14:53;43.10;;;26.30;;
65871;SDS011;52653;50.080;21.992;2023-02-13T00:17:47;43.80;;;26.20;;
65871;SDS011;52653;50.080;21.992;2023-02-13T00:20:40;44.80;;;26.50;;
65871;SDS011;52653;50.080;21.992;2023-02-13T00:23:35;42.10;;;26.30;;
65871;SDS011;52653;50.080;21.992;2023-02-13T00:26:29;43.60;;;25.60;;
65871;SDS011;52653;50.080;21.992;2023-02-13T00:29:23;43.00;;;25.30;;
65871;SDS011;52653;50.080;21.992;2023-02-13T00:32:16;41.40;;;24.00;;
65871;SDS011;52653;50.080;21.992;2023-02-13T00:35:09;43.30;;;26.00;;
65871;SDS011;52653;50.080;21.992;2023-02-13T00:38:02;39.90;;;23.70;;
65871;SDS011;52653;50.080;21.992;2023-02-13T00:40:55;40.00;;;23.80;;
65871;SDS011;52653;50.080;21.992;2023-02-13T00:43:48;41.60;;;24.00;;
65871;SDS011;52653;50.080;21.992;2023-02-13T00:46:34;45.80;;;25.90;;
65871;SDS011;52653;50.080;21.992;2023-02-13T00:49:25;36.40;;;23.40;;
65871;SDS011;52653;50.080;21.992;2023-02-13T00:52:18;42.90;;;25.30;;
65871;SDS011;52653;50.080;21.992;2023-02-13T00:55:11;46.40;;;29.00;;
65871;SDS011;52653;50.080;21.992;2023-02-13T00:58:04;52.60;;;30.50;;
65871;SDS011;52653;50.080;21.992;2023-02-13T01:00:57;56.30;;;33.80;;
65871;SDS011;52653;50.080;21.992;2023-02-13T01:03:50;53.90;;;33.40;;
65871;SDS011;52653;50.080;21.992;2023-02-13T01:06:43;54.90;;;35.00;;
65871;SDS011;52653;50.080;21.992;2023-02-13T01:09:37;59.00;;;35.20;;
65871;SDS011;52653;50.080;21.992;2023-02-13T01:12:23;59.60;;;35.10;;
65871;SDS011;52653;50.080;21.992;2023-02-13T01:15:16;57.30;;;33.10;;
65871;SDS011;52653;50.080;21.992;2023-02-13T01:18:10;50.30;;;31.80;;
65871;SDS011;52653;50.080;21.992;2023-02-13T01:21:07;51.50;;;31.60;;
65871;SDS011;52653;50.080;21.992;2023-02-13T01:24:20;51.70;;;31.70;;
65871;SDS011;52653;50.080;21.992;2023-02-13T01:27:05;53.90;;;31.70;;
65871;SDS011;52653;50.080;21.992;2023-02-13T01:29:57;53.10;;;31.70;;
65871;SDS011;52653;50.080;21.992;2023-02-13T01:32:50;49.60;;;31.10;;
65871;SDS011;52653;50.080;21.992;2023-02-13T01:35:42;48.60;;;30.20;;
65871;SDS011;52653;50.080;21.992;2023-02-13T01:38:35;47.10;;;28.70;;
65871;SDS011;52653;50.080;21.992;2023-02-13T01:41:28;47.50;;;29.60;;
65871;SDS011;52653;50.080;21.992;2023-02-13T01:47:37;46.20;;;29.50;;
65871;SDS011;52653;50.080;21.992;2023-02-13T01:50:35;45.60;;;28.40;;
65871;SDS011;52653;50.080;21.992;2023-02-13T01:53:32;45.80;;;28.40;;
65871;SDS011;52653;50.080;21.992;2023-02-13T01:56:31;45.60;;;28.30;;
65871;SDS011;52653;50.080;21.992;2023-02-13T01:59:27;45.80;;;28.20;;
65871;SDS011;52653;50.080;21.992;2023-02-13T02:02:23;46.80;;;28.70;;
65871;SDS011;52653;50.080;21.992;2023-02-13T02:05:18;45.30;;;28.40;;
65871;SDS011;52653;50.080;21.992;2023-02-13T02:08:13;46.90;;;29.00;;
65871;SDS011;52653;50.080;21.992;2023-02-13T02:11:09;44.70;;;28.40;;
65871;SDS011;52653;50.080;21.992;2023-02-13T02:14:07;40.40;;;27.30;;
65871;SDS011;52653;50.080;21.992;2023-02-13T02:16:52;38.20;;;22.90;;
65871;SDS011;52653;50.080;21.992;2023-02-13T02:19:48;46.70;;;31.90;;
65871;SDS011;52653;50.080;21.992;2023-02-13T02:23:07;40.70;;;26.60;;
65871;SDS011;52653;50.080;21.992;2023-02-13T02:33:36;38.00;;;21.00;;
65871;SDS011;52653;50.080;21.992;2023-02-13T02:36:39;32.20;;;19.00;;
65871;SDS011;52653;50.080;21.992;2023-02-13T02:42:45;30.40;;;17.70;;
65871;SDS011;52653;50.080;21.992;2023-02-13T02:45:50;30.20;;;18.90;;
65871;SDS011;52653;50.080;21.992;2023-02-13T02:48:49;35.10;;;19.60;;
65871;SDS011;52653;50.080;21.992;2023-02-13T02:52:04;31.40;;;18.80;;
65871;SDS011;52653;50.080;21.992;2023-02-13T02:55:06;31.10;;;19.30;;
65871;SDS011;52653;50.080;21.992;2023-02-13T02:58:10;28.30;;;18.70;;
65871;SDS011;52653;50.080;21.992;2023-02-13T03:01:27;30.90;;;19.40;;
65871;SDS011;52653;50.080;21.992;2023-02-13T03:04:39;33.00;;;18.20;;
65871;SDS011;52653;50.080;21.992;2023-02-13T03:07:53;27.10;;;15.50;;
65871;SDS011;52653;50.080;21.992;2023-02-13T03:10:44;28.60;;;15.20;;
65871;SDS011;52653;50.080;21.992;2023-02-13T03:14:08;29.40;;;15.30;;
65871;SDS011;52653;50.080;21.992;2023-02-13T03:17:03;27.50;;;15.20;;
65871;SDS011;52653;50.080;21.992;2023-02-13T03:20:22;26.80;;;15.10;;
65871;SDS011;52653;50.080;21.992;2023-02-13T03:23:44;25.50;;;14.50;;
65871;SDS011;52653;50.080;21.992;2023-02-13T03:26:46;24.10;;;13.80;;
65871;SDS011;52653;50.080;21.992;2023-02-13T03:30:02;28.70;;;14.60;;
65871;SDS011;52653;50.080;21.992;2023-02-13T03:33:05;26.50;;;14.40;;
65871;SDS011;52653;50.080;21.992;2023-02-13T03:36:39;25.70;;;13.70;;
65871;SDS011;52653;50.080;21.992;2023-02-13T03:40:00;27.70;;;14.70;;
65871;SDS011;52653;50.080;21.992;2023-02-13T03:43:00;29.40;;;15.90;;
65871;SDS011;52653;50.080;21.992;2023-02-13T03:45:58;27.20;;;16.20;;
65871;SDS011;52653;50.080;21.992;2023-02-13T03:48:51;31.20;;;16.80;;
65871;SDS011;52653;50.080;21.992;2023-02-13T03:52:04;29.60;;;16.80;;
65871;SDS011;52653;50.080;21.992;2023-02-13T03:55:03;27.50;;;16.00;;
65871;SDS011;52653;50.080;21.992;2023-02-13T03:58:17;28.80;;;15.50;;
65871;SDS011;52653;50.080;21.992;2023-02-13T04:01:32;27.50;;;14.80;;
65871;SDS011;52653;50.080;21.992;2023-02-13T04:04:30;26.40;;;15.40;;
65871;SDS011;52653;50.080;21.992;2023-02-13T04:07:28;26.00;;;13.70;;
65871;SDS011;52653;50.080;21.992;2023-02-13T04:10:23;24.00;;;13.10;;
65871;SDS011;52653;50.080;21.992;2023-02-13T04:13:21;28.00;;;14.70;;
65871;SDS011;52653;50.080;21.992;2023-02-13T04:16:22;28.50;;;14.90;;
65871;SDS011;52653;50.080;21.992;2023-02-13T04:19:21;26.30;;;14.80;;
65871;SDS011;52653;50.080;21.992;2023-02-13T04:22:17;29.40;;;16.10;;
65871;SDS011;52653;50.080;21.992;2023-02-13T04:25:10;28.40;;;16.00;;
65871;SDS011;52653;50.080;21.992;2023-02-13T04:28:06;30.80;;;16.70;;
65871;SDS011;52653;50.080;21.992;2023-02-13T04:31:00;30.60;;;15.60;;
65871;SDS011;52653;50.080;21.992;2023-02-13T04:33:54;27.90;;;16.70;;
65871;SDS011;52653;50.080;21.992;2023-02-13T04:36:48;29.60;;;17.00;;
65871;SDS011;52653;50.080;21.992;2023-02-13T04:39:41;27.20;;;16.30;;
65871;SDS011;52653;50.080;21.992;2023-02-13T04:42:35;32.90;;;17.50;;
65871;SDS011;52653;50.080;21.992;2023-02-13T04:45:27;33.00;;;17.90;;
65871;SDS011;52653;50.080;21.992;2023-02-13T04:48:21;34.70;;;17.30;;
65871;SDS011;52653;50.080;21.992;2023-02-13T04:51:13;33.20;;;20.10;;
65871;SDS011;52653;50.080;21.992;2023-02-13T04:54:07;31.50;;;18.30;;
65871;SDS011;52653;50.080;21.992;2023-02-13T04:57:00;31.40;;;17.90;;
65871;SDS011;52653;50.080;21.992;2023-02-13T04:59:53;31.40;;;18.30;;
65871;SDS011;52653;50.080;21.992;2023-02-13T05:02:46;29.20;;;17.60;;
65871;SDS011;52653;50.080;21.992;2023-02-13T05:05:39;29.00;;;16.50;;
65871;SDS011;52653;50.080;21.992;2023-02-13T05:08:33;36.00;;;17.60;;
65871;SDS011;52653;50.080;21.992;2023-02-13T05:11:27;32.60;;;18.30;;
65871;SDS011;52653;50.080;21.992;2023-02-13T05:14:14;38.30;;;18.90;;
65871;SDS011;52653;50.080;21.992;2023-02-13T05:17:06;31.30;;;18.00;;
65871;SDS011;52653;50.080;21.992;2023-02-13T05:19:59;32.20;;;18.70;;
65871;SDS011;52653;50.080;21.992;2023-02-13T05:22:52;31.60;;;18.40;;
65871;SDS011;52653;50.080;21.992;2023-02-13T05:26:03;33.50;;;18.70;;
65871;SDS011;52653;50.080;21.992;2023-02-13T05:28:56;28.90;;;16.30;;
65871;SDS011;52653;50.080;21.992;2023-02-13T05:32:06;33.10;;;18.50;;
65871;SDS011;52653;50.080;21.992;2023-02-13T05:34:58;31.00;;;16.30;;
65871;SDS011;52653;50.080;21.992;2023-02-13T05:37:53;32.90;;;18.90;;
65871;SDS011;52653;50.080;21.992;2023-02-13T05:40:39;31.90;;;18.20;;
65871;SDS011;52653;50.080;21.992;2023-02-13T05:43:31;36.60;;;18.10;;
65871;SDS011;52653;50.080;21.992;2023-02-13T05:46:26;32.10;;;17.70;;
65871;SDS011;52653;50.080;21.992;2023-02-13T05:49:19;33.60;;;18.90;;
65871;SDS011;52653;50.080;21.992;2023-02-13T05:52:12;35.50;;;19.50;;
65871;SDS011;52653;50.080;21.992;2023-02-13T05:55:05;31.30;;;19.20;;
65871;SDS011;52653;50.080;21.992;2023-02-13T05:57:59;34.60;;;20.80;;
65871;SDS011;52653;50.080;21.992;2023-02-13T06:00:53;33.20;;;19.60;;
65871;SDS011;52653;50.080;21.992;2023-02-13T06:03:42;36.70;;;22.00;;
65871;SDS011;52653;50.080;21.992;2023-02-13T06:06:27;34.60;;;20.80;;
65871;SDS011;52653;50.080;21.992;2023-02-13T06:09:20;37.90;;;22.40;;
65871;SDS011;52653;50.080;21.992;2023-02-13T06:12:13;38.10;;;21.90;;
65871;SDS011;52653;50.080;21.992;2023-02-13T06:15:07;36.50;;;23.00;;
65871;SDS011;52653;50.080;21.992;2023-02-13T06:18:00;38.40;;;22.90;;
65871;SDS011;52653;50.080;21.992;2023-02-13T06:20:54;38.50;;;22.20;;
65871;SDS011;52653;50.080;21.992;2023-02-13T06:23:40;37.20;;;21.00;;
65871;SDS011;52653;50.080;21.992;2023-02-13T06:26:33;36.50;;;21.10;;
65871;SDS011;52653;50.080;21.992;2023-02-13T06:29:26;39.50;;;23.20;;
65871;SDS011;52653;50.080;21.992;2023-02-13T06:32:19;37.60;;;20.60;;
65871;SDS011;52653;50.080;21.992;2023-02-13T06:35:12;35.60;;;22.40;;
65871;SDS011;52653;50.080;21.992;2023-02-13T06:38:05;37.20;;;22.40;;
65871;SDS011;52653;50.080;21.992;2023-02-13T06:40:59;36.00;;;22.50;;
65871;SDS011;52653;50.080;21.992;2023-02-13T06:43:52;37.50;;;20.60;;
65871;SDS011;52653;50.080;21.992;2023-02-13T06:46:46;38.80;;;23.50;;
65871;SDS011;52653;50.080;21.992;2023-02-13T06:49:39;38.30;;;23.00;;
65871;SDS011;52653;50.080;21.992;2023-02-13T06:52:34;40.30;;;23.20;;
65871;SDS011;52653;50.080;21.992;2023-02-13T06:55:27;42.20;;;23.20;;
65871;SDS011;52653;50.080;21.992;2023-02-13T06:58:21;42.70;;;25.30;;
65871;SDS011;52653;50.080;21.992;2023-02-13T07:01:15;42.00;;;23.50;;
65871;SDS011;52653;50.080;21.992;2023-02-13T07:04:07;44.70;;;27.00;;
65871;SDS011;52653;50.080;21.992;2023-02-13T07:07:00;45.80;;;27.10;;
65871;SDS011;52653;50.080;21.992;2023-02-13T07:09:53;44.00;;;26.80;;
65871;SDS011;52653;50.080;21.992;2023-02-13T07:12:46;48.00;;;27.00;;
65871;SDS011;52653;50.080;21.992;2023-02-13T07:15:53;47.10;;;26.80;;
65871;SDS011;52653;50.080;21.992;2023-02-13T07:18:44;44.50;;;26.20;;
65871;SDS011;52653;50.080;21.992;2023-02-13T07:21:39;39.70;;;23.40;;
65871;SDS011;52653;50.080;21.992;2023-02-13T07:24:32;42.60;;;24.70;;
65871;SDS011;52653;50.080;21.992;2023-02-13T07:27:27;44.10;;;26.80;;
65871;SDS011;52653;50.080;21.992;2023-02-13T07:30:18;48.80;;;29.10;;
65871;SDS011;52653;50.080;21.992;2023-02-13T07:33:12;51.80;;;30.30;;
65871;SDS011;52653;50.080;21.992;2023-02-13T07:36:05;49.20;;;29.80;;
65871;SDS011;52653;50.080;21.992;2023-02-13T07:38:59;50.00;;;29.70;;
65871;SDS011;52653;50.080;21.992;2023-02-13T07:41:52;47.30;;;28.20;;
65871;SDS011;52653;50.080;21.992;2023-02-13T07:44:45;49.30;;;29.60;;
65871;SDS011;52653;50.080;21.992;2023-02-13T07:47:38;49.60;;;29.20;;
65871;SDS011;52653;50.080;21.992;2023-02-13T07:50:31;49.50;;;30.30;;
65871;SDS011;52653;50.080;21.992;2023-02-13T07:53:24;49.20;;;27.50;;
65871;SDS011;52653;50.080;21.992;2023-02-13T07:56:13;46.90;;;27.40;;
65871;SDS011;52653;50.080;21.992;2023-02-13T07:59:05;47.60;;;28.60;;
65871;SDS011;52653;50.080;21.992;2023-02-13T08:01:58;46.10;;;26.30;;
65871;SDS011;52653;50.080;21.992;2023-02-13T08:04:51;46.50;;;27.00;;
65871;SDS011;52653;50.080;21.992;2023-02-13T08:07:37;43.40;;;26.90;;
65871;SDS011;52653;50.080;21.992;2023-02-13T08:10:30;43.80;;;27.90;;
65871;SDS011;52653;50.080;21.992;2023-02-13T08:13:40;45.20;;;28.10;;
65871;SDS011;52653;50.080;21.992;2023-02-13T08:16:24;44.80;;;28.40;;
65871;SDS011;52653;50.080;21.992;2023-02-13T08:19:19;44.20;;;26.30;;
65871;SDS011;52653;50.080;21.992;2023-02-13T08:22:05;42.70;;;27.20;;
65871;SDS011;52653;50.080;21.992;2023-02-13T08:24:58;47.40;;;29.40;;
65871;SDS011;52653;50.080;21.992;2023-02-13T08:27:53;45.50;;;27.00;;
65871;SDS011;52653;50.080;21.992;2023-02-13T08:30:45;45.30;;;26.40;;
65871;SDS011;52653;50.080;21.992;2023-02-13T08:33:40;44.20;;;25.80;;
65871;SDS011;52653;50.080;21.992;2023-02-13T08:36:33;41.40;;;25.60;;
65871;SDS011;52653;50.080;21.992;2023-02-13T08:39:28;42.20;;;25.50;;
65871;SDS011;52653;50.080;21.992;2023-02-13T08:42:06;45.20;;;25.90;;
65871;SDS011;52653;50.080;21.992;2023-02-13T08:45:04;43.50;;;26.60;;
65871;SDS011;52653;50.080;21.992;2023-02-13T08:48:00;45.00;;;28.60;;
65871;SDS011;52653;50.080;21.992;2023-02-13T08:50:34;43.00;;;26.30;;
65871;SDS011;52653;50.080;21.992;2023-02-13T08:53:27;44.20;;;26.00;;
65871;SDS011;52653;50.080;21.992;2023-02-13T08:56:20;42.10;;;25.80;;
65871;SDS011;52653;50.080;21.992;2023-02-13T08:59:14;44.80;;;24.30;;
65871;SDS011;52653;50.080;21.992;2023-02-13T09:02:07;38.60;;;24.40;;
65871;SDS011;52653;50.080;21.992;2023-02-13T09:05:01;43.60;;;26.00;;
65871;SDS011;52653;50.080;21.992;2023-02-13T09:07:56;37.00;;;22.50;;
65871;SDS011;52653;50.080;21.992;2023-02-13T09:10:55;40.50;;;25.60;;
65871;SDS011;52653;50.080;21.992;2023-02-13T09:13:51;39.40;;;22.10;;
65871;SDS011;52653;50.080;21.992;2023-02-13T09:16:44;40.00;;;24.60;;
65871;SDS011;52653;50.080;21.992;2023-02-13T09:19:38;41.70;;;25.00;;
65871;SDS011;52653;50.080;21.992;2023-02-13T09:22:31;42.90;;;26.90;;
65871;SDS011;52653;50.080;21.992;2023-02-13T09:25:04;54.20;;;31.30;;
65871;SDS011;52653;50.080;21.992;2023-02-13T09:27:59;56.30;;;32.20;;
65871;SDS011;52653;50.080;21.992;2023-02-13T09:30:51;44.90;;;26.80;;
65871;SDS011;52653;50.080;21.992;2023-02-13T09:33:45;49.30;;;32.40;;
65871;SDS011;52653;50.080;21.992;2023-02-13T09:36:39;42.20;;;26.70;;
65871;SDS011;52653;50.080;21.992;2023-02-13T09:39:34;39.20;;;24.10;;
65871;SDS011;52653;50.080;21.992;2023-02-13T09:42:30;39.80;;;25.30;;
65871;SDS011;52653;50.080;21.992;2023-02-13T09:45:20;40.80;;;24.50;;
65871;SDS011;52653;50.080;21.992;2023-02-13T09:48:17;39.10;;;24.00;;
65871;SDS011;52653;50.080;21.992;2023-02-13T09:51:19;42.70;;;27.10;;
65871;SDS011;52653;50.080;21.992;2023-02-13T09:54:07;42.10;;;25.60;;
65871;SDS011;52653;50.080;21.992;2023-02-13T09:57:01;44.20;;;25.50;;
65871;SDS011;52653;50.080;21.992;2023-02-13T10:00:00;42.80;;;27.10;;
65871;SDS011;52653;50.080;21.992;2023-02-13T10:03:12;40.80;;;25.50;;
65871;SDS011;52653;50.080;21.992;2023-02-13T10:06:17;38.10;;;23.00;;
65871;SDS011;52653;50.080;21.992;2023-02-13T10:09:14;41.80;;;25.70;;
65871;SDS011;52653;50.080;21.992;2023-02-13T10:12:15;40.40;;;26.40;;
65871;SDS011;52653;50.080;21.992;2023-02-13T10:15:11;41.50;;;25.90;;
65871;SDS011;52653;50.080;21.992;2023-02-13T10:18:11;41.90;;;26.40;;
65871;SDS011;52653;50.080;21.992;2023-02-13T10:21:09;37.20;;;22.30;;
65871;SDS011;52653;50.080;21.992;2023-02-13T10:24:05;37.60;;;23.50;;
65871;SDS011;52653;50.080;21.992;2023-02-13T10:27:03;37.00;;;22.70;;
65871;SDS011;52653;50.080;21.992;2023-02-13T10:30:13;34.70;;;22.30;;
65871;SDS011;52653;50.080;21.992;2023-02-13T10:33:10;34.20;;;23.70;;
65871;SDS011;52653;50.080;21.992;2023-02-13T10:36:14;37.40;;;24.30;;
65871;SDS011;52653;50.080;21.992;2023-02-13T10:39:08;37.60;;;22.50;;
65871;SDS011;52653;50.080;21.992;2023-02-13T10:42:17;34.30;;;23.10;;
65871;SDS011;52653;50.080;21.992;2023-02-13T10:45:13;34.00;;;20.70;;
65871;SDS011;52653;50.080;21.992;2023-02-13T10:48:25;35.60;;;21.50;;
65871;SDS011;52653;50.080;21.992;2023-02-13T10:51:24;40.00;;;22.80;;
65871;SDS011;52653;50.080;21.992;2023-02-13T10:54:39;33.50;;;20.10;;
65871;SDS011;52653;50.080;21.992;2023-02-13T10:57:42;31.10;;;18.10;;
65871;SDS011;52653;50.080;21.992;2023-02-13T11:00:52;29.20;;;18.70;;
65871;SDS011;52653;50.080;21.992;2023-02-13T11:03:48;32.50;;;20.90;;
65871;SDS011;52653;50.080;21.992;2023-02-13T11:06:39;36.30;;;21.10;;
65871;SDS011;52653;50.080;21.992;2023-02-13T11:09:29;36.70;;;20.50;;
65871;SDS011;52653;50.080;21.992;2023-02-13T11:12:29;30.50;;;19.40;;
65871;SDS011;52653;50.080;21.992;2023-02-13T11:15:26;30.50;;;18.60;;
65871;SDS011;52653;50.080;21.992;2023-02-13T11:18:21;28.00;;;17.00;;
65871;SDS011;52653;50.080;21.992;2023-02-13T11:21:08;29.50;;;19.90;;
65871;SDS011;52653;50.080;21.992;2023-02-13T11:23:59;34.00;;;19.00;;
65871;SDS011;52653;50.080;21.992;2023-02-13T11:26:57;36.00;;;20.00;;
65871;SDS011;52653;50.080;21.992;2023-02-13T11:29:52;29.10;;;19.20;;
65871;SDS011;52653;50.080;21.992;2023-02-13T11:32:46;33.00;;;20.00;;
65871;SDS011;52653;50.080;21.992;2023-02-13T11:35:49;31.50;;;20.40;;
65871;SDS011;52653;50.080;21.992;2023-02-13T11:38:59;29.50;;;19.40;;
65871;SDS011;52653;50.080;21.992;2023-02-13T11:41:47;34.30;;;19.70;;
65871;SDS011;52653;50.080;21.992;2023-02-13T11:45:02;27.60;;;17.00;;
65871;SDS011;52653;50.080;21.992;2023-02-13T11:47:50;30.50;;;17.50;;
65871;SDS011;52653;50.080;21.992;2023-02-13T11:50:44;31.90;;;18.00;;
65871;SDS011;52653;50.080;21.992;2023-02-13T11:53:44;35.50;;;19.20;;
65871;SDS011;52653;50.080;21.992;2023-02-13T11:56:48;32.50;;;18.70;;
65871;SDS011;52653;50.080;21.992;2023-02-13T11:59:57;32.90;;;18.30;;
65871;SDS011;52653;50.080;21.992;2023-02-13T12:03:25;27.30;;;17.80;;
65871;SDS011;52653;50.080;21.992;2023-02-13T12:06:20;26.90;;;16.30;;
65871;SDS011;52653;50.080;21.992;2023-02-13T12:09:13;29.90;;;18.10;;
65871;SDS011;52653;50.080;21.992;2023-02-13T12:12:08;37.20;;;22.00;;
65871;SDS011;52653;50.080;21.992;2023-02-13T12:15:13;31.30;;;19.30;;
65871;SDS011;52653;50.080;21.992;2023-02-13T12:18:09;26.90;;;17.00;;
65871;SDS011;52653;50.080;21.992;2023-02-13T12:21:11;26.90;;;16.20;;
65871;SDS011;52653;50.080;21.992;2023-02-13T12:24:20;25.60;;;15.90;;
65871;SDS011;52653;50.080;21.992;2023-02-13T12:27:25;28.70;;;18.70;;
65871;SDS011;52653;50.080;21.992;2023-02-13T12:30:37;24.60;;;16.40;;
65871;SDS011;52653;50.080;21.992;2023-02-13T12:33:37;26.50;;;16.30;;
65871;SDS011;52653;50.080;21.992;2023-02-13T12:36:40;26.10;;;14.80;;
65871;SDS011;52653;50.080;21.992;2023-02-13T12:39:32;24.70;;;15.00;;
65871;SDS011;52653;50.080;21.992;2023-02-13T12:42:30;27.00;;;15.90;;
65871;SDS011;52653;50.080;21.992;2023-02-13T12:45:32;25.60;;;15.30;;
65871;SDS011;52653;50.080;21.992;2023-02-13T12:48:22;26.80;;;15.30;;
65871;SDS011;52653;50.080;21.992;2023-02-13T12:51:32;24.70;;;13.40;;
65871;SDS011;52653;50.080;21.992;2023-02-13T12:54:37;27.40;;;15.30;;
65871;SDS011;52653;50.080;21.992;2023-02-13T12:57:41;25.80;;;14.00;;
65871;SDS011;52653;50.080;21.992;2023-02-13T13:00:46;22.90;;;14.20;;
65871;SDS011;52653;50.080;21.992;2023-02-13T13:03:50;21.30;;;13.00;;
65871;SDS011;52653;50.080;21.992;2023-02-13T13:06:56;22.10;;;13.60;;
65871;SDS011;52653;50.080;21.992;2023-02-13T13:10:09;21.50;;;12.00;;
65871;SDS011;52653;50.080;21.992;2023-02-13T13:13:16;19.70;;;11.40;;
65871;SDS011;52653;50.080;21.992;2023-02-13T13:16:25;18.50;;;10.60;;
65871;SDS011;52653;50.080;21.992;2023-02-13T13:19:32;20.20;;;11.20;;
65871;SDS011;52653;50.080;21.992;2023-02-13T13:22:30;19.20;;;9.90;;
65871;SDS011;52653;50.080;21.992;2023-02-13T13:25:28;19.70;;;10.10;;
65871;SDS011;52653;50.080;21.992;2023-02-13T13:28:27;16.10;;;8.60;;
65871;SDS011;52653;50.080;21.992;2023-02-13T13:31:25;15.90;;;8.00;;
65871;SDS011;52653;50.080;21.992;2023-02-13T13:34:19;15.40;;;7.90;;
65871;SDS011;52653;50.080;21.992;2023-02-13T13:37:17;14.60;;;7.40;;
65871;SDS011;52653;50.080;21.992;2023-02-13T13:40:23;16.50;;;7.20;;
65871;SDS011;52653;50.080;21.992;2023-02-13T13:43:18;15.40;;;6.60;;
65871;SDS011;52653;50.080;21.992;2023-02-13T13:46:19;14.20;;;7.50;;
65871;SDS011;52653;50.080;21.992;2023-02-13T13:49:35;14.00;;;7.70;;
65871;SDS011;52653;50.080;21.992;2023-02-13T13:52:21;15.60;;;8.20;;
65871;SDS011;52653;50.080;21.992;2023-02-13T13:55:09;17.30;;;9.40;;
65871;SDS011;52653;50.080;21.992;2023-02-13T13:58:40;14.90;;;9.00;;
65871;SDS011;52653;50.080;21.992;2023-02-13T14:01:38;16.40;;;8.90;;
65871;SDS011;52653;50.080;21.992;2023-02-13T14:04:39;20.10;;;10.70;;
65871;SDS011;52653;50.080;21.992;2023-02-13T14:07:48;20.00;;;11.30;;
65871;SDS011;52653;50.080;21.992;2023-02-13T14:11:00;21.90;;;11.20;;
65871;SDS011;52653;50.080;21.992;2023-02-13T14:13:47;28.20;;;13.90;;
65871;SDS011;52653;50.080;21.992;2023-02-13T14:16:41;25.20;;;14.20;;
65871;SDS011;52653;50.080;21.992;2023-02-13T14:19:36;26.60;;;14.40;;
65871;SDS011;52653;50.080;21.992;2023-02-13T14:22:34;23.60;;;14.20;;
65871;SDS011;52653;50.080;21.992;2023-02-13T14:25:29;24.90;;;15.60;;
65871;SDS011;52653;50.080;21.992;2023-02-13T14:28:17;24.10;;;14.60;;
65871;SDS011;52653;50.080;21.992;2023-02-13T14:31:17;24.20;;;14.50;;
65871;SDS011;52653;50.080;21.992;2023-02-13T14:34:26;27.90;;;15.00;;
65871;SDS011;52653;50.080;21.992;2023-02-13T14:37:24;27.40;;;17.10;;
65871;SDS011;52653;50.080;21.992;2023-02-13T14:43:38;26.80;;;16.50;;
65871;SDS011;52653;50.080;21.992;2023-02-13T14:46:39;29.10;;;15.90;;
65871;SDS011;52653;50.080;21.992;2023-02-13T14:49:37;29.20;;;17.10;;
65871;SDS011;52653;50.080;21.992;2023-02-13T14:52:34;28.90;;;16.60;;
65871;SDS011;52653;50.080;21.992;2023-02-13T14:55:32;27.80;;;16.30;;
65871;SDS011;52653;50.080;21.992;2023-02-13T14:58:30;27.10;;;15.70;;
65871;SDS011;52653;50.080;21.992;2023-02-13T15:01:29;26.40;;;17.40;;
65871;SDS011;52653;50.080;21.992;2023-02-13T15:04:19;26.70;;;17.00;;
65871;SDS011;52653;50.080;21.992;2023-02-13T15:07:20;33.40;;;18.50;;
65871;SDS011;52653;50.080;21.992;2023-02-13T15:09:59;32.30;;;19.30;;
65871;SDS011;52653;50.080;21.992;2023-02-13T15:12:39;45.20;;;23.40;;
65871;SDS011;52653;50.080;21.992;2023-02-13T15:15:23;34.60;;;20.60;;
65871;SDS011;52653;50.080;21.992;2023-02-13T15:18:18;30.00;;;18.10;;
65871;SDS011;52653;50.080;21.992;2023-02-13T15:21:05;29.90;;;17.60;;
65871;SDS011;52653;50.080;21.992;2023-02-13T15:24:03;30.20;;;18.00;;
65871;SDS011;52653;50.080;21.992;2023-02-13T15:26:59;29.10;;;18.40;;
65871;SDS011;52653;50.080;21.992;2023-02-13T15:29:55;31.70;;;19.20;;
65871;SDS011;52653;50.080;21.992;2023-02-13T15:32:54;36.20;;;21.00;;
65871;SDS011;52653;50.080;21.992;2023-02-13T15:35:34;32.20;;;18.90;;
65871;SDS011;52653;50.080;21.992;2023-02-13T15:38:19;28.70;;;18.20;;
65871;SDS011;52653;50.080;21.992;2023-02-13T15:41:08;32.80;;;20.50;;
65871;SDS011;52653;50.080;21.992;2023-02-13T15:44:12;26.90;;;17.80;;
65871;SDS011;52653;50.080;21.992;2023-02-13T15:47:04;29.10;;;18.80;;
65871;SDS011;52653;50.080;21.992;2023-02-13T15:49:57;29.50;;;18.60;;
65871;SDS011;52653;50.080;21.992;2023-02-13T15:52:50;28.00;;;17.90;;
65871;SDS011;52653;50.080;21.992;2023-02-13T15:55:56;32.70;;;19.80;;
65871;SDS011;52653;50.080;21.992;2023-02-13T15:58:55;27.20;;;17.50;;
65871;SDS011;52653;50.080;21.992;2023-02-13T16:01:50;28.50;;;19.00;;
65871;SDS011;52653;50.080;21.992;2023-02-13T16:04:37;28.20;;;18.00;;
65871;SDS011;52653;50.080;21.992;2023-02-13T16:07:36;26.80;;;18.80;;
65871;SDS011;52653;50.080;21.992;2023-02-13T16:10:39;30.60;;;19.70;;
65871;SDS011;52653;50.080;21.992;2023-02-13T16:16:54;30.60;;;19.60;;
65871;SDS011;52653;50.080;21.992;2023-02-13T16:19:52;28.70;;;17.60;;
65871;SDS011;52653;50.080;21.992;2023-02-13T16:22:47;31.30;;;18.80;;
65871;SDS011;52653;50.080;21.992;2023-02-13T16:25:42;28.40;;;17.90;;
65871;SDS011;52653;50.080;21.992;2023-02-13T16:28:30;31.70;;;18.50;;
65871;SDS011;52653;50.080;21.992;2023-02-13T16:31:23;30.30;;;18.90;;
65871;SDS011;52653;50.080;21.992;2023-02-13T16:34:23;30.90;;;19.30;;
65871;SDS011;52653;50.080;21.992;2023-02-13T16:43:35;23.20;;;14.30;;
65871;SDS011;52653;50.080;21.992;2023-02-13T16:46:30;24.50;;;15.60;;
65871;SDS011;52653;50.080;21.992;2023-02-13T16:49:18;20.50;;;12.30;;
65871;SDS011;52653;50.080;21.992;2023-02-13T16:52:10;22.20;;;13.80;;
65871;SDS011;52653;50.080;21.992;2023-02-13T16:55:13;20.20;;;13.90;;
65871;SDS011;52653;50.080;21.992;2023-02-13T16:58:10;20.90;;;12.70;;
65871;SDS011;52653;50.080;21.992;2023-02-13T17:01:04;19.20;;;12.20;;
65871;SDS011;52653;50.080;21.992;2023-02-13T17:03:58;18.30;;;12.50;;
65871;SDS011;52653;50.080;21.992;2023-02-13T17:06:53;23.10;;;15.40;;
65871;SDS011;52653;50.080;21.992;2023-02-13T17:09:52;23.90;;;15.60;;
65871;SDS011;52653;50.080;21.992;2023-02-13T17:12:47;25.80;;;16.70;;
65871;SDS011;52653;50.080;21.992;2023-02-13T17:15:33;23.80;;;15.20;;
65871;SDS011;52653;50.080;21.992;2023-02-13T17:18:27;24.30;;;15.40;;
65871;SDS011;52653;50.080;21.992;2023-02-13T17:21:19;23.60;;;16.30;;
65871;SDS011;52653;50.080;21.992;2023-02-13T17:24:14;24.80;;;16.00;;